createdAt,value
2022-11-20T00:02:28.132Z,99925.00
2022-11-20T00:05:04.166Z,99931.00
2022-11-20T00:07:40.676Z,99931.40
2022-11-20T00:10:18.108Z,99940.20
2022-11-20T00:12:54.520Z,99940.20
2022-11-20T00:15:31.316Z,99944.40
2022-11-20T00:18:07.802Z,99937.80
2022-11-20T00:20:44.461Z,99942.60
2022-11-20T00:23:20.480Z,99944.40
2022-11-20T00:25:57.336Z,99949.40
2022-11-20T00:28:37.258Z,99947.60
2022-11-20T00:31:15.833Z,99953.00
2022-11-20T00:33:52.352Z,99953.80
2022-11-20T00:36:30.324Z,99955.60
2022-11-20T00:39:06.836Z,99948.80
2022-11-20T00:41:43.735Z,99953.40
2022-11-20T00:44:23.887Z,99957.00
2022-11-20T00:47:00.468Z,99961.80
2022-11-20T00:49:37.237Z,99963.60
2022-11-20T00:52:14.358Z,99963.60
2022-11-20T00:54:50.586Z,99967.00
2022-11-20T00:57:26.696Z,99968.80
2022-11-20T01:00:03.888Z,99970.60
2022-11-20T01:02:40.698Z,99970.80
2022-11-20T01:05:18.322Z,99972.00
2022-11-20T01:07:55.343Z,99975.00
2022-11-20T01:10:32.466Z,99971.40
2022-11-20T01:13:25.883Z,99975.40
2022-11-20T01:16:07.904Z,99975.80
2022-11-20T01:18:47.151Z,99976.20
2022-11-20T01:21:27.617Z,99973.00
2022-11-20T01:24:03.405Z,99976.40
2022-11-20T01:26:48.609Z,99976.80
2022-11-20T01:29:28.331Z,99976.80
2022-11-20T01:32:04.656Z,99973.80
2022-11-20T01:34:41.766Z,99974.40
2022-11-20T01:37:18.455Z,99972.20
2022-11-20T01:39:54.895Z,99970.80
2022-11-20T01:42:47.867Z,99971.80
2022-11-20T01:46:17.630Z,99975.60
2022-11-20T01:49:03.012Z,99981.60
2022-11-20T01:51:47.204Z,99979.40
2022-11-20T01:54:34.675Z,99977.80
2022-11-20T01:57:14.153Z,99977.40
2022-11-20T02:00:00.569Z,99979.20
2022-11-20T02:02:37.828Z,99980.20
2022-11-20T02:05:26.713Z,99977.20
2022-11-20T02:08:06.655Z,99977.80
2022-11-20T02:10:44.022Z,99973.20
2022-11-20T02:13:34.058Z,99975.60
2022-11-20T02:16:13.343Z,99977.60
2022-11-20T02:18:50.545Z,99977.00
2022-11-20T02:21:45.846Z,99976.20
2022-11-20T02:24:25.442Z,99981.00
2022-11-20T02:27:06.641Z,99982.80
2022-11-20T02:29:50.697Z,99980.20
2022-11-20T02:32:33.576Z,99975.00
2022-11-20T02:36:00.962Z,99972.40
2022-11-20T02:38:38.215Z,99976.80
2022-11-20T02:41:15.334Z,99981.20
2022-11-20T02:43:51.798Z,99987.40
2022-11-20T02:46:28.249Z,99982.40
2022-11-20T02:49:04.284Z,99981.00
2022-11-20T02:51:41.110Z,99981.60
2022-11-20T02:54:18.068Z,99982.20
2022-11-20T02:56:54.681Z,99981.80
2022-11-20T02:59:31.705Z,99980.80
2022-11-20T03:02:08.408Z,99984.20
2022-11-20T03:04:44.334Z,99983.00
2022-11-20T03:07:20.324Z,99988.60
2022-11-20T03:10:03.346Z,99986.00
2022-11-20T03:12:39.380Z,99983.40
2022-11-20T03:15:18.661Z,99984.20
2022-11-20T03:17:56.428Z,99978.60
2022-11-20T03:20:32.923Z,99975.60
2022-11-20T03:23:08.955Z,99981.40
2022-11-20T03:25:46.077Z,99978.80
2022-11-20T03:28:22.745Z,99983.80
2022-11-20T03:30:59.776Z,99989.00
2022-11-20T03:33:38.316Z,99987.40
2022-11-20T03:36:18.021Z,99993.80
2022-11-20T03:38:54.112Z,99996.40
2022-11-20T03:41:32.533Z,99995.60
2022-11-20T03:44:12.247Z,100000.60
2022-11-20T03:46:48.867Z,100003.00
2022-11-20T03:49:25.308Z,100007.00
2022-11-20T03:52:02.322Z,100008.40
2022-11-20T03:54:40.047Z,100009.20
2022-11-20T03:57:17.082Z,100017.00
2022-11-20T03:59:54.331Z,100020.40
2022-11-20T04:02:31.513Z,100025.40
2022-11-20T04:05:08.908Z,100033.80
2022-11-20T04:07:45.833Z,100029.60
2022-11-20T04:10:22.268Z,100029.40
2022-11-20T04:12:59.164Z,100032.00
2022-11-20T04:15:38.568Z,100035.40
2022-11-20T04:18:15.398Z,100036.60
2022-11-20T04:20:52.189Z,100037.20
2022-11-20T04:23:29.236Z,100042.40
2022-11-20T04:26:12.636Z,100039.40
2022-11-20T04:28:50.571Z,100042.40
2022-11-20T04:31:33.268Z,100045.00
2022-11-20T04:34:16.288Z,100047.00
2022-11-20T04:36:52.525Z,100034.80
2022-11-20T04:39:28.892Z,100034.40
2022-11-20T04:42:24.868Z,100039.40
2022-11-20T04:45:02.481Z,100045.00
2022-11-20T04:47:39.217Z,100042.00
2022-11-20T04:50:18.582Z,100043.20
2022-11-20T04:52:55.265Z,100044.80
2022-11-20T04:55:31.945Z,100054.00
2022-11-20T04:58:07.810Z,100049.80
2022-11-20T05:00:43.727Z,100048.20
2022-11-20T05:03:20.724Z,100051.60
2022-11-20T05:05:57.407Z,100052.20
2022-11-20T05:08:33.904Z,100052.60
2022-11-20T05:11:13.938Z,100051.40
2022-11-20T05:13:50.588Z,100061.40
2022-11-20T05:16:29.472Z,100057.20
2022-11-20T05:19:09.808Z,100057.40
2022-11-20T05:21:46.799Z,100065.00
2022-11-20T05:24:23.313Z,100058.80
2022-11-20T05:26:59.823Z,100061.00
2022-11-20T05:29:36.950Z,100070.00
2022-11-20T05:32:14.403Z,100074.80
2022-11-20T05:35:16.046Z,100074.00
2022-11-20T05:37:53.221Z,100068.40
2022-11-20T05:40:31.920Z,100068.60
2022-11-20T05:43:07.393Z,100075.40
2022-11-20T05:45:43.803Z,100079.40
2022-11-20T05:48:20.310Z,100082.60
2022-11-20T05:50:56.564Z,100085.20
2022-11-20T05:53:33.891Z,100090.00
2022-11-20T05:56:14.121Z,100092.40
2022-11-20T05:58:50.735Z,100094.80
2022-11-20T06:01:29.743Z,100098.20
2022-11-20T06:04:06.744Z,100098.40
2022-11-20T06:06:44.309Z,100105.60
2022-11-20T06:09:21.551Z,100102.40
2022-11-20T06:11:58.527Z,100109.00
2022-11-20T06:14:35.760Z,100111.40
2022-11-20T06:17:12.434Z,100113.60
2022-11-20T06:19:49.364Z,100114.00
2022-11-20T06:22:25.912Z,100113.00
2022-11-20T06:25:02.678Z,100115.20
2022-11-20T06:27:38.927Z,100114.60
2022-11-20T06:30:22.495Z,100119.60
2022-11-20T06:32:59.671Z,100121.80
2022-11-20T06:35:36.063Z,100115.00
2022-11-20T06:38:12.818Z,100121.80
2022-11-20T06:40:50.777Z,100130.80
2022-11-20T06:43:28.238Z,100128.20
2022-11-20T06:46:04.819Z,100133.40
2022-11-20T06:48:41.550Z,100137.20
2022-11-20T06:51:17.820Z,100137.40
2022-11-20T06:53:54.934Z,100139.60
2022-11-20T06:56:31.903Z,100147.40
2022-11-20T06:59:13.566Z,100148.60
2022-11-20T07:01:50.711Z,100150.80
2022-11-20T07:04:27.846Z,100156.40
2022-11-20T07:07:04.450Z,100157.20
2022-11-20T07:09:41.158Z,100157.60
2022-11-20T07:12:17.556Z,100156.80
2022-11-20T07:14:54.689Z,100157.80
2022-11-20T07:17:30.753Z,100160.20
2022-11-20T07:20:08.335Z,100165.20
2022-11-20T07:22:44.348Z,100167.60
2022-11-20T07:25:21.402Z,100167.80
2022-11-20T07:27:59.934Z,100168.80
2022-11-20T07:30:37.078Z,100166.00
2022-11-20T07:33:13.676Z,100171.20
2022-11-20T07:35:50.058Z,100171.60
2022-11-20T07:38:26.690Z,100171.40
2022-11-20T07:41:05.092Z,100173.60
2022-11-20T07:43:41.838Z,100174.40
2022-11-20T07:46:18.695Z,100177.80
2022-11-20T07:48:54.706Z,100180.60
2022-11-20T07:51:31.298Z,100179.20
2022-11-20T07:54:09.128Z,100183.40
2022-11-20T07:56:44.923Z,100184.80
2022-11-20T07:59:21.319Z,100183.00
2022-11-20T08:01:57.350Z,100185.60
2022-11-20T08:04:33.416Z,100193.20
2022-11-20T08:07:10.657Z,100189.20
2022-11-20T08:09:47.672Z,100196.60
2022-11-20T08:12:43.857Z,100189.60
2022-11-20T08:15:21.351Z,100194.00
2022-11-20T08:18:29.466Z,100197.80
2022-11-20T08:20:59.085Z,100204.80
2022-11-20T08:23:36.112Z,100208.60
2022-11-20T08:26:13.120Z,100204.60
2022-11-20T08:28:50.390Z,100210.20
2022-11-20T08:31:27.609Z,100208.00
2022-11-20T08:34:18.618Z,100209.20
2022-11-20T08:36:56.582Z,100210.60
2022-11-20T08:39:33.399Z,100209.00
2022-11-20T08:42:12.441Z,100210.80
2022-11-20T08:44:48.323Z,100208.20
2022-11-20T08:47:25.076Z,100207.80
2022-11-20T08:50:02.619Z,100210.40
2022-11-20T08:52:39.778Z,100212.40
2022-11-20T08:55:17.525Z,100211.80
2022-11-20T08:57:54.069Z,100211.80
2022-11-20T09:00:32.445Z,100216.40
2022-11-20T09:03:08.778Z,100217.40
2022-11-20T09:05:45.623Z,100215.40
2022-11-20T09:08:22.540Z,100224.00
2022-11-20T09:11:02.092Z,100222.40
2022-11-20T09:13:38.656Z,100223.60
2022-11-20T09:16:16.864Z,100222.40
2022-11-20T09:19:13.430Z,100222.60
2022-11-20T09:21:56.896Z,100232.00
2022-11-20T09:24:35.991Z,100234.00
2022-11-20T09:27:13.175Z,100235.00
2022-11-20T09:29:49.542Z,100236.20
2022-11-20T09:32:25.935Z,100236.00
2022-11-20T09:35:02.439Z,100232.20
2022-11-20T09:37:39.159Z,100231.00
2022-11-20T09:40:28.348Z,100231.80
2022-11-20T09:43:14.519Z,100231.60
2022-11-20T09:46:16.609Z,100232.60
2022-11-20T09:49:11.281Z,100237.40
2022-11-20T09:52:00.469Z,100239.80
2022-11-20T09:54:42.116Z,100231.20
2022-11-20T09:57:27.090Z,100231.20
2022-11-20T10:00:08.132Z,100231.80
2022-11-20T10:02:58.808Z,100232.00
2022-11-20T10:05:43.008Z,100228.60
2022-11-20T10:08:30.560Z,100225.80
2022-11-20T10:11:20.558Z,100224.80
2022-11-20T10:14:17.424Z,100221.80
2022-11-20T10:17:06.198Z,100220.00
2022-11-20T10:20:17.186Z,100218.80
2022-11-20T10:23:25.954Z,100215.40
2022-11-20T10:26:20.157Z,100209.80
2022-11-20T10:29:13.634Z,100211.80
2022-11-20T10:31:54.230Z,100218.80
2022-11-20T10:34:44.127Z,100218.20
2022-11-20T10:37:25.799Z,100213.60
2022-11-20T10:40:18.397Z,100215.80
2022-11-20T10:42:59.398Z,100211.40
2022-11-20T10:45:52.405Z,100210.20
2022-11-20T10:48:31.569Z,100209.40
2022-11-20T10:51:29.926Z,100208.60
2022-11-20T10:54:25.050Z,100204.00
2022-11-20T10:57:09.322Z,100198.80
2022-11-20T11:00:19.876Z,100203.00
2022-11-20T11:03:03.775Z,100194.40
2022-11-20T11:05:50.310Z,100198.00
2022-11-20T11:08:30.431Z,100196.80
2022-11-20T11:11:21.822Z,100200.00
2022-11-20T11:14:07.854Z,100195.60
2022-11-20T11:16:55.926Z,100189.00
2022-11-20T11:19:32.834Z,100189.20
2022-11-20T11:22:26.944Z,100185.60
2022-11-20T11:25:04.399Z,100174.80
2022-11-20T11:27:51.168Z,100175.40
2022-11-20T11:30:29.686Z,100172.40
2022-11-20T11:33:22.673Z,100170.60
2022-11-20T11:36:02.740Z,100172.40
2022-11-20T11:38:44.159Z,100169.40
2022-11-20T11:41:27.482Z,100162.60
2022-11-20T11:44:41.636Z,100165.00
2022-11-20T11:47:33.094Z,100162.20
2022-11-20T11:50:27.746Z,100158.00
2022-11-20T11:53:20.752Z,100161.40
2022-11-20T11:56:06.740Z,100159.40
2022-11-20T11:58:51.501Z,100154.80
2022-11-20T12:01:38.240Z,100156.20
2022-11-20T12:04:29.575Z,100159.00
2022-11-20T12:07:45.093Z,100159.60
2022-11-20T12:10:26.418Z,100159.60
2022-11-20T12:13:12.166Z,100160.80
2022-11-20T12:15:53.597Z,100157.40
2022-11-20T12:18:31.509Z,100156.40
2022-11-20T12:21:30.199Z,100155.00
2022-11-20T12:24:35.614Z,100155.20
2022-11-20T12:27:46.478Z,100155.00
2022-11-20T12:30:25.754Z,100150.20
2022-11-20T12:33:35.665Z,100148.00
2022-11-20T12:36:36.218Z,100143.60
2022-11-20T12:39:36.931Z,100144.20
2022-11-20T12:43:00.695Z,100140.60
2022-11-20T12:46:02.453Z,100137.60
2022-11-20T12:49:01.515Z,100136.80
2022-11-20T12:52:00.813Z,100136.80
2022-11-20T12:55:13.703Z,100137.60
2022-11-20T12:57:57.172Z,100136.20
2022-11-20T13:00:37.420Z,100136.60
2022-11-20T13:03:42.206Z,100131.40
2022-11-20T13:06:25.115Z,100129.80
2022-11-20T13:09:04.556Z,100134.60
2022-11-20T13:11:48.982Z,100134.60
2022-11-20T13:14:41.269Z,100133.20
2022-11-20T13:17:28.332Z,100134.20
2022-11-20T13:20:05.799Z,100136.60
2022-11-20T13:22:54.009Z,100135.20
2022-11-20T13:25:35.533Z,100127.40
2022-11-20T13:28:33.004Z,100128.20
2022-11-20T13:31:14.131Z,100123.60
2022-11-20T13:33:59.292Z,100119.60
2022-11-20T13:36:37.996Z,100119.60
2022-11-20T13:39:16.554Z,100117.00
2022-11-20T13:42:04.237Z,100108.80
2022-11-20T13:44:45.561Z,100107.40
2022-11-20T13:47:30.320Z,100104.40
2022-11-20T13:50:11.906Z,100109.60
2022-11-20T13:53:08.589Z,100108.20
2022-11-20T13:55:50.689Z,100110.20
2022-11-20T13:58:54.005Z,100108.60
2022-11-20T14:01:35.819Z,100113.00
2022-11-20T14:04:29.686Z,100116.00
2022-11-20T14:07:09.607Z,100116.00
2022-11-20T14:09:56.259Z,100121.80
2022-11-20T14:12:38.321Z,100120.20
2022-11-20T14:15:40.407Z,100112.80
2022-11-20T14:18:29.239Z,100115.40
2022-11-20T14:21:12.777Z,100114.40
2022-11-20T14:23:49.449Z,100115.40
2022-11-20T14:26:26.787Z,100111.20
2022-11-20T14:29:03.905Z,100115.80
2022-11-20T14:31:40.403Z,100118.20
2022-11-20T14:34:26.004Z,100116.80
2022-11-20T14:37:05.243Z,100113.40
2022-11-20T14:39:44.825Z,100115.20
2022-11-20T14:42:27.227Z,100113.60
2022-11-20T14:45:05.392Z,100118.00
2022-11-20T14:47:42.882Z,100112.20
2022-11-20T14:50:26.688Z,100110.40
2022-11-20T14:53:05.326Z,100110.40
2022-11-20T14:55:43.882Z,100111.40
2022-11-20T14:58:31.404Z,100111.60
2022-11-20T15:01:09.205Z,100115.80
2022-11-20T15:03:47.282Z,100126.80
2022-11-20T15:06:33.774Z,100128.60
2022-11-20T15:09:16.568Z,100132.00
2022-11-20T15:12:02.858Z,100119.40
2022-11-20T15:14:42.905Z,100118.40
2022-11-20T15:17:20.508Z,100128.60
2022-11-20T15:19:58.935Z,100127.00
2022-11-20T15:22:35.579Z,100128.80
2022-11-20T15:25:21.386Z,100130.60
2022-11-20T15:28:01.447Z,100136.80
2022-11-20T15:30:38.736Z,100143.20
2022-11-20T15:33:16.304Z,100146.00
2022-11-20T15:35:52.796Z,100146.00
2022-11-20T15:38:28.296Z,100146.40
2022-11-20T15:41:06.057Z,100147.00
2022-11-20T15:43:42.816Z,100144.00
2022-11-20T15:46:23.764Z,100146.20
2022-11-20T15:49:03.559Z,100151.20
2022-11-20T15:51:43.328Z,100153.80
2022-11-20T15:54:23.582Z,100159.80
2022-11-20T15:57:02.010Z,100160.80
2022-11-20T15:59:42.430Z,100163.00
2022-11-20T16:02:20.158Z,100158.20
2022-11-20T16:04:57.329Z,100161.60
2022-11-20T16:07:34.203Z,100165.80
2022-11-20T16:10:14.783Z,100172.80
2022-11-20T16:13:07.935Z,100172.40
2022-11-20T16:15:49.225Z,100178.00
2022-11-20T16:18:28.236Z,100181.60
2022-11-20T16:21:05.117Z,100190.60
2022-11-20T16:23:41.803Z,100201.60
2022-11-20T16:26:23.573Z,100204.60
2022-11-20T16:29:00.118Z,100207.20
2022-11-20T16:31:36.233Z,100205.80
2022-11-20T16:34:14.283Z,100201.60
2022-11-20T16:36:50.611Z,100206.40
2022-11-20T16:39:28.499Z,100206.00
2022-11-20T16:42:07.203Z,100206.40
2022-11-20T16:44:44.165Z,100210.40
2022-11-20T16:47:21.666Z,100211.80
2022-11-20T16:49:58.827Z,100214.80
2022-11-20T16:52:35.081Z,100212.20
2022-11-20T16:55:14.330Z,100205.00
2022-11-20T16:57:50.815Z,100206.80
2022-11-20T17:00:27.896Z,100214.40
2022-11-20T17:03:04.826Z,100214.40
2022-11-20T17:05:43.090Z,100214.80
2022-11-20T17:08:20.102Z,100218.00
2022-11-20T17:10:57.091Z,100216.20
2022-11-20T17:13:39.647Z,100215.80
2022-11-20T17:16:20.620Z,100212.20
2022-11-20T17:19:02.819Z,100212.80
2022-11-20T17:21:39.549Z,100215.20
2022-11-20T17:24:18.289Z,100223.80
2022-11-20T17:26:56.341Z,100223.20
2022-11-20T17:29:35.485Z,100226.20
2022-11-20T17:32:14.660Z,100225.00
2022-11-20T17:34:51.219Z,100224.40
2022-11-20T17:37:28.262Z,100224.80
2022-11-20T17:40:05.885Z,100222.40
2022-11-20T17:42:42.026Z,100223.80
2022-11-20T17:45:19.200Z,100228.00
2022-11-20T17:47:55.276Z,100224.40
2022-11-20T17:50:32.145Z,100220.60
2022-11-20T17:53:09.990Z,100220.20
2022-11-20T17:56:03.413Z,100219.20
2022-11-20T17:58:40.138Z,100212.20
2022-11-20T18:01:16.784Z,100210.60
2022-11-20T18:03:53.751Z,100221.00
2022-11-20T18:06:32.235Z,100227.20
2022-11-20T18:09:09.468Z,100225.60
2022-11-20T18:11:46.860Z,100225.40
2022-11-20T18:14:36.811Z,100228.40
2022-11-20T18:17:15.478Z,100236.20
2022-11-20T18:20:21.321Z,100234.40
2022-11-20T18:22:49.822Z,100236.80
2022-11-20T18:25:26.989Z,100236.60
2022-11-20T18:28:04.254Z,100240.20
2022-11-20T18:30:41.479Z,100251.40
2022-11-20T18:33:17.310Z,100250.40
2022-11-20T18:35:53.848Z,100249.60
2022-11-20T18:38:30.701Z,100248.60
2022-11-20T18:41:07.920Z,100245.60
2022-11-20T18:44:01.643Z,100253.00
2022-11-20T18:46:38.588Z,100255.60
2022-11-20T18:49:14.466Z,100246.80
2022-11-20T18:51:50.907Z,100247.40
2022-11-20T18:54:27.297Z,100240.40
2022-11-20T18:57:04.389Z,100240.80
2022-11-20T18:59:40.777Z,100232.60
2022-11-20T19:02:19.928Z,100232.80
2022-11-20T19:04:56.141Z,100230.20
2022-11-20T19:07:32.893Z,100224.40
2022-11-20T19:10:11.113Z,100227.20
2022-11-20T19:12:47.793Z,100231.20
2022-11-20T19:15:25.064Z,100229.60
2022-11-20T19:18:01.460Z,100225.00
2022-11-20T19:20:37.526Z,100216.00
2022-11-20T19:23:13.664Z,100217.00
2022-11-20T19:25:49.679Z,100210.60
2022-11-20T19:28:26.232Z,100211.60
2022-11-20T19:31:07.423Z,100211.40
2022-11-20T19:33:44.753Z,100213.80
2022-11-20T19:36:24.062Z,100214.60
2022-11-20T19:39:00.940Z,100219.40
2022-11-20T19:41:38.926Z,100218.80
2022-11-20T19:44:17.182Z,100211.00
2022-11-20T19:46:54.441Z,100210.20
2022-11-20T19:49:31.546Z,100208.00
2022-11-20T19:52:08.968Z,100207.40
2022-11-20T19:54:44.497Z,100205.20
2022-11-20T19:57:20.732Z,100200.20
2022-11-20T19:59:57.750Z,100198.00
2022-11-20T20:02:33.963Z,100196.60
2022-11-20T20:05:13.140Z,100193.40
2022-11-20T20:07:50.046Z,100190.20
2022-11-20T20:10:27.126Z,100182.80
2022-11-20T20:13:02.862Z,100180.00
2022-11-20T20:15:45.483Z,100182.40
2022-11-20T20:18:21.557Z,100187.40
2022-11-20T20:21:02.601Z,100189.40
2022-11-20T20:23:39.362Z,100194.80
2022-11-20T20:26:17.545Z,100183.00
2022-11-20T20:28:53.952Z,100187.00
2022-11-20T20:31:32.157Z,100192.20
2022-11-20T20:34:10.251Z,100199.00
2022-11-20T20:36:47.635Z,100195.80
2022-11-20T20:39:24.809Z,100197.60
2022-11-20T20:42:01.287Z,100200.40
2022-11-20T20:44:54.288Z,100203.20
2022-11-20T20:47:35.489Z,100201.60
2022-11-20T20:50:15.000Z,100199.40
2022-11-20T20:52:52.028Z,100194.00
2022-11-20T20:55:28.985Z,100190.40
2022-11-20T20:58:06.075Z,100186.40
2022-11-20T21:00:44.835Z,100181.60
2022-11-20T21:03:20.612Z,100172.80
2022-11-20T21:06:01.841Z,100170.80
2022-11-20T21:08:40.772Z,100169.20
2022-11-20T21:11:20.342Z,100172.40
2022-11-20T21:13:57.377Z,100177.00
2022-11-20T21:16:41.245Z,100172.20
2022-11-20T21:19:19.158Z,100174.60
2022-11-20T21:22:03.234Z,100177.00
2022-11-20T21:24:39.734Z,100177.20
2022-11-20T21:27:16.308Z,100179.20
2022-11-20T21:29:52.659Z,100180.20
2022-11-20T21:32:29.547Z,100179.80
2022-11-20T21:35:06.722Z,100181.80
2022-11-20T21:37:44.535Z,100182.00
2022-11-20T21:40:22.462Z,100181.40
2022-11-20T21:43:00.174Z,100184.60
2022-11-20T21:45:37.188Z,100185.00
2022-11-20T21:48:15.840Z,100192.20
2022-11-20T21:50:52.904Z,100196.20
2022-11-20T21:53:29.181Z,100194.40
2022-11-20T21:56:06.533Z,100195.20
2022-11-20T21:58:45.985Z,100196.60
2022-11-20T22:01:25.140Z,100199.80
2022-11-20T22:04:04.171Z,100208.00
2022-11-20T22:06:41.866Z,100211.20
2022-11-20T22:09:18.630Z,100205.20
2022-11-20T22:11:54.603Z,100208.40
2022-11-20T22:14:30.875Z,100209.00
2022-11-20T22:17:07.038Z,100207.40
2022-11-20T22:19:43.307Z,100210.60
2022-11-20T22:22:20.396Z,100213.40
2022-11-20T22:24:57.177Z,100219.60
2022-11-20T22:27:34.478Z,100225.60
2022-11-20T22:30:15.618Z,100227.60
2022-11-20T22:32:54.214Z,100226.80
2022-11-20T22:35:31.032Z,100225.20
2022-11-20T22:38:07.846Z,100225.80
2022-11-20T22:40:44.321Z,100225.20
2022-11-20T22:43:22.189Z,100225.00
2022-11-20T22:46:02.576Z,100230.40
2022-11-20T22:48:38.681Z,100229.00
2022-11-20T22:51:18.522Z,100225.40
2022-11-20T22:53:55.369Z,100222.20
2022-11-20T22:56:31.986Z,100220.00
2022-11-20T22:59:07.489Z,100226.60
2022-11-20T23:01:45.316Z,100227.80
2022-11-20T23:04:22.173Z,100229.40
2022-11-20T23:06:58.827Z,100232.20
2022-11-20T23:09:35.299Z,100235.40
2022-11-20T23:12:15.409Z,100235.80
2022-11-20T23:14:52.067Z,100237.60
2022-11-20T23:17:28.937Z,100237.60
2022-11-20T23:20:05.609Z,100235.00
2022-11-20T23:22:42.434Z,100231.60
2022-11-20T23:25:19.808Z,100232.40
2022-11-20T23:27:58.002Z,100228.40
2022-11-20T23:30:35.303Z,100221.80
2022-11-20T23:33:12.025Z,100210.60
2022-11-20T23:35:51.087Z,100215.80
2022-11-20T23:38:27.166Z,100213.40
2022-11-20T23:41:03.623Z,100207.60
2022-11-20T23:43:40.106Z,100191.60
2022-11-20T23:46:16.996Z,100183.00
2022-11-20T23:48:54.501Z,100183.00
2022-11-20T23:51:31.222Z,100182.20
2022-11-20T23:54:08.510Z,100173.00
2022-11-20T23:56:44.464Z,100177.80
2022-11-20T23:59:21.172Z,100166.80
